Time;durP1;ratioP1;P1;durP2;ratioP2;P2;SDS_P1;SDS_P2;PMS_P1;PMS_P2;Temp;Humidity;BMP_temperature;BMP_pressure;BME280_temperature;BME280_humidity;BME280_pressure;Samples;Min_cycle;Max_cycle;Signal;HPM_P1;HPM_P2
2021/06/06 00:02:44;;;;;;;6.22;5.35;;;;;;;;;;6293225;28;20020;-80
2021/06/06 00:05:56;;;;;;;6.45;5.60;;;15.60;99.90;;;;;;6293081;28;20032;-79
2021/06/06 00:08:57;;;;;;;7.93;5.25;;;15.90;99.90;;;;;;6259041;28;20028;-79
2021/06/06 00:11:58;;;;;;;5.55;5.05;;;15.60;99.90;;;;;;6275340;28;20382;-81
2021/06/06 00:14:59;;;;;;;5.45;4.88;;;15.50;99.90;;;;;;6274999;28;20145;-79
2021/06/06 00:17:59;;;;;;;5.78;5.28;;;15.60;99.90;;;;;;6258461;28;20043;-79
2021/06/06 00:21:00;;;;;;;5.28;4.78;;;15.60;99.90;;;;;;6292857;28;20063;-80
2021/06/06 00:24:01;;;;;;;5.93;5.32;;;15.20;99.90;;;;;;6258661;28;20074;-79
2021/06/06 00:27:02;;;;;;;6.20;5.60;;;15.30;99.90;;;;;;6272470;28;20364;-80
2021/06/06 00:30:05;;;;;;;6.68;5.75;;;15.30;99.90;;;;;;6258482;28;20032;-79
2021/06/06 00:33:06;;;;;;;6.05;5.35;;;15.30;99.90;;;;;;6258313;28;20524;-79
2021/06/06 00:36:07;;;;;;;6.28;5.53;;;15.30;99.90;;;;;;6274767;28;20029;-81
2021/06/06 00:39:08;;;;;;;6.03;5.43;;;15.20;99.90;;;;;;6257975;28;20131;-80
2021/06/06 00:42:10;;;;;;;6.63;5.70;;;15.30;99.90;;;;;;6257750;28;20034;-80
2021/06/06 00:45:13;;;;;;;6.75;6.15;;;15.20;99.90;;;;;;6258266;28;20019;-79
2021/06/06 00:48:13;;;;;;;6.38;5.28;;;15.40;99.90;;;;;;6274972;28;21004;-81
2021/06/06 00:51:31;;;;;;;6.93;5.10;;;15.40;99.90;;;;;;6292526;28;20121;-79
2021/06/06 00:54:40;;;;;;;5.80;5.22;;;15.30;99.90;;;;;;6259913;28;20462;-80
2021/06/06 00:57:40;;;;;;;5.82;5.22;;;15.60;99.90;;;;;;6241552;28;20402;-80
2021/06/06 01:00:47;;;;;;;6.10;5.50;;;15.50;99.90;;;;;;6257839;28;20035;-79
2021/06/06 01:03:48;;;;;;;5.65;4.97;;;15.50;99.90;;;;;;6258063;28;20024;-79
2021/06/06 01:06:51;;;;;;;6.10;5.50;;;15.40;99.90;;;;;;6257931;28;20028;-80
2021/06/06 01:09:51;;;;;;;5.78;5.18;;;15.50;99.90;;;;;;6274493;28;20024;-79
2021/06/06 01:12:59;;;;;;;5.72;5.18;;;15.50;99.90;;;;;;6241521;28;20028;-81
2021/06/06 01:16:02;;;;;;;5.70;5.10;;;15.60;99.90;;;;;;6242184;28;20021;-79
2021/06/06 01:19:11;;;;;;;11.63;5.18;;;15.30;99.90;;;;;;6241505;28;20102;-79
2021/06/06 01:22:34;;;;;;;6.00;5.38;;;15.60;99.90;;;;;;6246921;28;20123;-79
2021/06/06 01:25:41;;;;;;;6.07;5.47;;;15.40;99.90;;;;;;6278844;28;20374;-80
2021/06/06 01:29:00;;;;;;;6.43;5.30;;;15.50;99.90;;;;;;6262875;28;20025;-80
2021/06/06 01:32:04;;;;;;;5.70;5.10;;;15.50;99.90;;;;;;6296953;28;20036;-79
2021/06/06 01:35:14;;;;;;;5.60;5.10;;;15.50;99.90;;;;;;6262818;28;20024;-80
2021/06/06 01:38:21;;;;;;;6.70;6.10;;;15.70;99.90;;;;;;6278598;28;20059;-79
2021/06/06 01:41:24;;;;;;;6.93;5.53;;;15.70;99.90;;;;;;6245993;28;20358;-79
2021/06/06 01:44:27;;;;;;;6.25;5.57;;;15.60;99.90;;;;;;6245786;28;20024;-79
2021/06/06 01:47:28;;;;;;;5.90;5.40;;;15.40;99.90;;;;;;6262343;28;20028;-79
2021/06/06 01:50:31;;;;;;;7.25;5.70;;;15.40;99.90;;;;;;6278622;28;20347;-79
2021/06/06 01:53:33;;;;;;;7.40;5.50;;;15.60;99.90;;;;;;6278762;28;20112;-79
2021/06/06 01:56:35;;;;;;;6.40;5.67;;;15.50;99.90;;;;;;6261745;28;20032;-80
2021/06/06 01:59:40;;;;;;;;;;;15.40;99.90;;;;;;6262288;28;21087;-79
2021/06/06 02:02:41;;;;;;;6.43;4.90;;;;;;;;;;6261470;28;19953;-80
2021/06/06 02:05:42;;;;;;;8.40;5.47;;;15.30;99.90;;;;;;6278488;28;20024;-79
2021/06/06 02:08:43;;;;;;;6.03;5.43;;;15.30;99.90;;;;;;6296262;28;20481;-79
2021/06/06 02:11:49;;;;;;;6.13;5.07;;;15.40;99.90;;;;;;6261502;28;20013;-79
2021/06/06 02:14:50;;;;;;;5.47;4.97;;;;;;;;;;6245214;28;20033;-79
2021/06/06 02:17:55;;;;;;;5.35;4.85;;;15.60;99.90;;;;;;6295887;28;20028;-79
2021/06/06 02:20:56;;;;;;;5.93;5.32;;;15.20;99.90;;;;;;6244865;28;20029;-81
2021/06/06 02:23:57;;;;;;;5.72;5.10;;;15.10;99.90;;;;;;6260982;28;20037;-80
2021/06/06 02:27:08;;;;;;;11.07;5.85;;;15.10;99.90;;;;;;6261031;28;20048;-79
2021/06/06 02:30:15;;;;;;;6.10;5.30;;;15.10;99.90;;;;;;6245277;28;20421;-79
2021/06/06 02:33:35;;;;;;;5.88;5.18;;;15.20;99.90;;;;;;6295844;28;20024;-80
2021/06/06 02:36:36;;;;;;;5.90;4.88;;;15.40;99.90;;;;;;6246086;28;20085;-79
2021/06/06 02:39:37;;;;;;;6.15;5.32;;;15.00;99.90;;;;;;6261124;28;20029;-79
2021/06/06 02:42:41;;;;;;;9.15;5.68;;;15.20;99.90;;;;;;6260754;28;20035;-80
2021/06/06 02:45:42;;;;;;;5.88;4.82;;;15.70;99.90;;;;;;6260771;28;20024;-79
2021/06/06 02:48:44;;;;;;;5.97;5.35;;;15.40;99.90;;;;;;6260388;28;20059;-79
2021/06/06 02:51:52;;;;;;;6.35;5.75;;;15.50;99.90;;;;;;6260910;28;20409;-79
2021/06/06 02:54:56;;;;;;;6.35;5.63;;;15.40;99.90;;;;;;6260992;28;20028;-80
2021/06/06 02:58:00;;;;;;;6.95;6.20;;;15.30;99.90;;;;;;6276892;28;20230;-81
2021/06/06 03:01:04;;;;;;;6.18;5.57;;;15.20;99.90;;;;;;6260767;28;20102;-79
2021/06/06 03:04:10;;;;;;;7.03;5.63;;;15.20;99.90;;;;;;6260659;28;20021;-80
2021/06/06 03:07:17;;;;;;;5.78;4.82;;;15.10;99.90;;;;;;6243981;28;20043;-80
2021/06/06 03:10:19;;;;;;;7.45;5.60;;;15.10;99.90;;;;;;6244550;28;20025;-81
2021/06/06 03:13:26;;;;;;;6.20;5.07;;;14.90;99.90;;;;;;6243747;28;20032;-79
2021/06/06 03:16:27;;;;;;;6.30;5.70;;;;;;;;;;6260600;28;20114;-79
2021/06/06 03:19:33;;;;;;;6.80;6.10;;;15.30;99.90;;;;;;6276236;28;20032;-81
2021/06/06 03:22:35;;;;;;;6.13;5.53;;;15.20;99.90;;;;;;6260206;28;20039;-80
2021/06/06 03:25:41;;;;;;;8.20;6.30;;;15.30;99.90;;;;;;6243514;28;20114;-80
2021/06/06 03:28:42;;;;;;;6.82;6.13;;;15.30;99.90;;;;;;6276190;28;20033;-79
2021/06/06 03:31:48;;;;;;;6.72;6.03;;;15.20;99.90;;;;;;6276460;28;20030;-79
2021/06/06 03:34:49;;;;;;;8.57;5.90;;;15.20;99.90;;;;;;6243217;28;20032;-79
2021/06/06 03:37:50;;;;;;;6.88;6.03;;;15.20;99.90;;;;;;6243203;28;20052;-79
2021/06/06 03:40:51;;;;;;;7.78;5.82;;;15.20;99.90;;;;;;6242896;28;20044;-79
2021/06/06 03:43:51;;;;;;;7.13;6.00;;;15.20;99.90;;;;;;6258710;28;20039;-79
2021/06/06 03:46:52;;;;;;;6.63;6.03;;;15.20;99.90;;;;;;6276480;28;20021;-81
2021/06/06 03:49:53;;;;;;;7.22;6.53;;;15.30;99.90;;;;;;6259389;28;20097;-80
2021/06/06 03:52:53;;;;;;;9.63;6.25;;;15.20;99.90;;;;;;6259510;28;20029;-80
2021/06/06 03:55:54;;;;;;;6.90;6.28;;;15.40;99.90;;;;;;6258919;28;20078;-81
2021/06/06 03:58:55;;;;;;;8.35;5.93;;;15.20;99.90;;;;;;6259168;28;20094;-81
2021/06/06 04:01:55;;;;;;;7.95;7.07;;;15.50;99.90;;;;;;6275595;28;20074;-79
2021/06/06 04:04:56;;;;;;;6.90;6.03;;;15.50;99.90;;;;;;6293685;28;20371;-80
2021/06/06 04:07:57;;;;;;;6.65;5.95;;;15.50;99.90;;;;;;6276063;28;20024;-79
2021/06/06 04:10:57;;;;;;;6.25;5.30;;;15.30;99.90;;;;;;6275780;28;20078;-80
2021/06/06 04:13:58;;;;;;;5.80;5.20;;;15.30;99.90;;;;;;6258927;28;20056;-80
2021/06/06 04:16:58;;;;;;;6.07;5.40;;;15.20;99.90;;;;;;6275884;28;20059;-79
2021/06/06 04:19:59;;;;;;;5.35;4.85;;;15.20;99.90;;;;;;6259034;28;20036;-80
2021/06/06 04:23:00;;;;;;;6.10;5.50;;;15.30;99.90;;;;;;6274996;28;20017;-81
2021/06/06 04:26:00;;;;;;;5.47;4.95;;;15.50;99.90;;;;;;6258551;28;20110;-81
2021/06/06 04:29:01;;;;;;;6.25;5.13;;;;;;;;;;6258386;28;20052;-79
2021/06/06 04:32:04;;;;;;;6.53;5.18;;;15.40;99.90;;;;;;6275111;28;20025;-80
2021/06/06 04:35:05;;;;;;;7.35;5.18;;;15.40;99.90;;;;;;6242728;28;20028;-79
2021/06/06 04:38:06;;;;;;;7.68;5.43;;;15.40;99.90;;;;;;6257953;28;20064;-80
2021/06/06 04:41:10;;;;;;;7.28;5.53;;;15.50;99.90;;;;;;6274862;28;20029;-80
2021/06/06 04:44:11;;;;;;;6.78;5.20;;;15.50;99.90;;;;;;6275057;28;20017;-80
2021/06/06 04:47:11;;;;;;;5.97;5.38;;;15.50;99.90;;;;;;6258388;28;20108;-80
2021/06/06 04:50:14;;;;;;;6.82;5.32;;;15.40;99.90;;;;;;6274880;28;20025;-81
2021/06/06 04:53:15;;;;;;;7.43;5.13;;;15.40;99.90;;;;;;6259014;28;20459;-81
2021/06/06 04:56:16;;;;;;;6.07;5.38;;;15.50;99.90;;;;;;6280161;28;20024;-80
2021/06/06 04:59:17;;;;;;;6.05;5.38;;;15.50;99.90;;;;;;6246729;28;20467;-80
2021/06/06 05:02:17;;;;;;;8.75;5.45;;;15.50;99.90;;;;;;6297637;28;20017;-80
2021/06/06 05:05:19;;;;;;;6.00;5.20;;;15.60;99.90;;;;;;6262962;28;20064;-80
2021/06/06 05:08:23;;;;;;;7.82;5.25;;;15.70;99.90;;;;;;6262894;28;20051;-80
2021/06/06 05:11:24;;;;;;;4.72;4.32;;;18.50;99.90;;;;;;6280212;28;20370;-79
2021/06/06 05:14:24;;;;;;;5.35;4.57;;;15.40;99.90;;;;;;6279328;28;20029;-80
2021/06/06 05:17:25;;;;;;;8.32;5.18;;;15.60;99.90;;;;;;6279680;28;20028;-80
2021/06/06 05:20:31;;;;;;;4.97;4.47;;;15.70;99.90;;;;;;6279721;28;20035;-79
2021/06/06 05:23:32;;;;;;;4.88;4.43;;;15.70;99.90;;;;;;6263297;28;20462;-80
2021/06/06 05:26:33;;;;;;;5.53;4.03;;;15.70;99.90;;;;;;6279407;28;20037;-80
2021/06/06 05:29:34;;;;;;;4.65;4.25;;;;;;;;;;6278744;28;20020;-79
2021/06/06 05:32:34;;;;;;;6.10;4.32;;;15.60;99.90;;;;;;6262813;28;20481;-80
2021/06/06 05:35:35;;;;;;;5.03;4.32;;;15.60;99.90;;;;;;6279166;28;20028;-80
2021/06/06 05:38:37;;;;;;;6.80;4.60;;;15.70;99.90;;;;;;6245401;28;20076;-81
2021/06/06 05:41:38;;;;;;;4.72;3.90;;;15.70;99.90;;;;;;6246130;28;20036;-80
2021/06/06 05:44:38;;;;;;;8.30;4.70;;;15.70;99.90;;;;;;6262076;28;20025;-80
2021/06/06 05:47:39;;;;;;;6.18;4.40;;;15.40;99.90;;;;;;6278987;28;20099;-80
2021/06/06 05:50:48;;;;;;;8.15;5.53;;;15.40;99.90;;;;;;6262110;28;20025;-81
2021/06/06 05:53:48;;;;;;;7.32;5.47;;;15.40;99.90;;;;;;6262887;28;20029;-80
2021/06/06 05:56:49;;;;;;;6.15;5.00;;;15.70;99.90;;;;;;6262539;28;20036;-80
2021/06/06 05:59:50;;;;;;;5.63;5.07;;;15.50;99.90;;;;;;6245567;28;20037;-81
2021/06/06 06:02:50;;;;;;;5.00;4.50;;;15.60;99.90;;;;;;6245141;28;20060;-79
2021/06/06 06:05:52;;;;;;;4.50;4.10;;;15.90;99.90;;;;;;6277730;28;20610;-80
2021/06/06 06:08:53;;;;;;;4.35;3.45;;;15.50;99.90;;;;;;6261895;28;20039;-80
2021/06/06 06:11:54;;;;;;;9.07;4.07;;;;;;;;;;6261446;28;20044;-80
2021/06/06 06:14:55;;;;;;;3.92;3.10;;;;;;;;;;6261324;28;20021;-80
2021/06/06 06:17:56;;;;;;;4.40;3.17;;;;;;;;;;6295554;28;20039;-79
2021/06/06 06:20:57;;;;;;;3.60;3.30;;;;;;;;;;6278152;28;20370;-79
2021/06/06 06:23:58;;;;;;;5.03;3.38;;;;;;;;;;6278319;28;20477;-80
2021/06/06 06:26:59;;;;;;;3.55;3.25;;;15.40;99.90;;;;;;6261185;28;20020;-80
2021/06/06 06:30:00;;;;;;;5.82;5.00;;;;;;;;;;6278204;28;20075;-80
2021/06/06 06:33:01;;;;;;;5.10;4.60;;;15.60;99.90;;;;;;6295690;28;20041;-80
2021/06/06 06:36:01;;;;;;;5.07;4.57;;;15.50;99.90;;;;;;6277497;28;20035;-81
2021/06/06 06:39:02;;;;;;;4.57;4.13;;;15.60;99.90;;;;;;6277191;28;20117;-81
2021/06/06 06:42:03;;;;;;;5.13;4.40;;;;;;;;;;6277251;28;20032;-81
2021/06/06 06:45:06;;;;;;;6.10;4.75;;;15.90;99.90;;;;;;6277557;28;20013;-80
2021/06/06 06:48:09;;;;;;;4.80;4.38;;;15.70;99.90;;;;;;6260991;28;20456;-81
2021/06/06 06:51:10;;;;;;;4.05;3.40;;;15.70;99.90;;;;;;6260979;28;20139;-80
2021/06/06 06:54:14;;;;;;;4.75;3.92;;;15.70;99.90;;;;;;6261107;28;20455;-81
2021/06/06 06:57:14;;;;;;;6.50;4.82;;;15.70;99.90;;;;;;6260905;28;20470;-80
2021/06/06 07:00:21;;;;;;;6.28;4.20;;;16.00;99.90;;;;;;6260703;28;20036;-80
2021/06/06 07:03:25;;;;;;;5.68;4.10;;;15.80;99.90;;;;;;6244075;28;20032;-80
2021/06/06 07:06:25;;;;;;;5.03;4.53;;;15.70;99.90;;;;;;6260735;28;20496;-80
2021/06/06 07:09:26;;;;;;;5.07;4.57;;;15.80;99.90;;;;;;6294179;28;20024;-79
2021/06/06 07:12:27;;;;;;;4.82;4.32;;;15.80;99.90;;;;;;6276573;28;20101;-79
2021/06/06 07:15:27;;;;;;;4.80;4.30;;;15.80;99.90;;;;;;6276489;28;20052;-78
2021/06/06 07:18:29;;;;;;;4.18;3.78;;;15.90;99.90;;;;;;6275690;28;20036;-81
2021/06/06 07:21:30;;;;;;;4.40;4.00;;;15.90;99.90;;;;;;6276002;28;20036;-80
2021/06/06 07:24:30;;;;;;;5.05;4.55;;;16.00;99.90;;;;;;6243135;28;20025;-80
2021/06/06 07:27:33;;;;;;;9.65;4.78;;;16.10;99.90;;;;;;6259171;28;20417;-77
2021/06/06 07:30:36;;;;;;;6.43;3.90;;;16.70;99.90;;;;;;6293140;28;20025;-79
2021/06/06 07:33:41;;;;;;;4.93;3.40;;;16.90;99.90;;;;;;6276426;28;20040;-76
2021/06/06 07:36:43;;;;;;;4.45;4.00;;;17.30;99.90;;;;;;6260218;28;20131;-80
2021/06/06 07:39:44;;;;;;;5.47;4.63;;;17.30;99.90;;;;;;6259722;28;20036;-83
2021/06/06 07:42:44;;;;;;;29.25;10.77;;;17.30;99.90;;;;;;6259507;28;20029;-77
2021/06/06 07:45:45;;;;;;;69.18;40.40;;;17.40;99.90;;;;;;6293987;28;20055;-80
2021/06/06 07:48:46;;;;;;;8.55;7.45;;;17.60;99.90;;;;;;6242880;28;20060;-80
2021/06/06 07:51:46;;;;;;;13.55;5.28;;;17.40;99.90;;;;;;6259485;28;20035;-76
2021/06/06 07:54:47;;;;;;;7.68;5.60;;;17.50;99.90;;;;;;6292989;28;20371;-78
2021/06/06 07:57:47;;;;;;;5.22;3.65;;;18.00;99.90;;;;;;6275582;28;20040;-82
2021/06/06 08:00:48;;;;;;;6.20;3.90;;;18.10;99.90;;;;;;6259004;28;20020;-80
2021/06/06 08:03:49;;;;;;;3.50;3.20;;;18.00;99.90;;;;;;6242132;28;20079;-81
2021/06/06 08:06:50;;;;;;;4.45;3.65;;;17.80;99.90;;;;;;6275353;28;20440;-80
2021/06/06 08:09:50;;;;;;;4.55;3.83;;;17.40;99.90;;;;;;6274141;28;20013;-79
2021/06/06 08:12:51;;;;;;;4.40;4.00;;;17.40;99.90;;;;;;6242238;28;20078;-80
2021/06/06 08:15:52;;;;;;;4.55;4.15;;;17.20;99.90;;;;;;6258336;28;20025;-80
2021/06/06 08:18:52;;;;;;;4.65;4.25;;;17.40;99.90;;;;;;6258267;28;20127;-81
2021/06/06 08:21:53;;;;;;;4.20;3.80;;;;;;;;;;6258570;28;20039;-80
2021/06/06 08:24:54;;;;;;;4.13;3.72;;;17.10;99.90;;;;;;6275425;28;20040;-80
2021/06/06 08:27:55;;;;;;;4.28;3.85;;;;;;;;;;6275140;28;20454;-80
2021/06/06 08:31:07;;;;;;;5.32;4.40;;;16.90;99.90;;;;;;6292867;28;20037;-82
2021/06/06 08:34:08;;;;;;;4.43;4.03;;;16.90;99.90;;;;;;6259666;28;20032;-80
2021/06/06 08:37:09;;;;;;;5.38;4.03;;;16.50;99.90;;;;;;6274631;28;20053;-79
2021/06/06 08:40:10;;;;;;;4.10;3.70;;;17.10;99.90;;;;;;6292862;28;20135;-84
2021/06/06 08:43:11;;;;;;;4.63;4.22;;;16.60;99.90;;;;;;6242732;28;20352;-85
2021/06/06 08:46:12;;;;;;;4.00;3.60;;;16.80;99.90;;;;;;6242112;28;20048;-88
2021/06/06 08:49:13;;;;;;;3.90;3.58;;;16.60;99.90;;;;;;6242975;28;20455;-80
2021/06/06 08:52:35;;;;;;;4.20;3.65;;;16.90;99.90;;;;;;6275272;28;20028;-83
2021/06/06 08:55:42;;;;;;;3.80;3.50;;;;;;;;;;6243308;28;20052;-87
2021/06/06 08:58:52;;;;;;;4.75;4.30;;;16.70;99.90;;;;;;6292953;28;20080;-84
2021/06/06 09:01:55;;;;;;;5.18;4.38;;;16.80;99.90;;;;;;6242644;28;20039;-84
2021/06/06 09:04:56;;;;;;;5.38;4.80;;;16.70;99.90;;;;;;6258957;28;20446;-81
2021/06/06 09:07:57;;;;;;;7.32;5.53;;;16.80;99.90;;;;;;6274731;28;20013;-80
2021/06/06 09:10:58;;;;;;;5.53;4.95;;;16.70;99.90;;;;;;6257340;28;20518;-78
2021/06/06 09:13:59;;;;;;;5.65;5.00;;;16.70;99.90;;;;;;6274231;28;20109;-77
2021/06/06 09:17:07;;;;;;;6.88;5.78;;;16.70;99.90;;;;;;6274571;28;20099;-81
2021/06/06 09:20:21;;;;;;;7.43;5.18;;;16.40;99.90;;;;;;6292446;28;20032;-78
2021/06/06 09:23:30;;;;;;;5.90;5.25;;;16.60;99.90;;;;;;6273614;28;20356;-79
2021/06/06 09:26:30;;;;;;;6.30;5.22;;;16.70;99.90;;;;;;6243836;28;20703;-79
2021/06/06 09:29:31;;;;;;;12.98;6.35;;;;;;;;;;6257076;28;20020;-81
2021/06/06 09:32:33;;;;;;;5.88;5.28;;;16.70;99.90;;;;;;6258175;28;20020;-81
2021/06/06 09:35:36;;;;;;;6.03;5.43;;;17.00;99.90;;;;;;6256494;28;20029;-81
2021/06/06 09:38:39;;;;;;;6.72;6.10;;;16.90;99.90;;;;;;6240369;28;20065;-82
2021/06/06 09:41:41;;;;;;;6.57;5.88;;;16.90;99.90;;;;;;6275707;28;20036;-79
2021/06/06 09:44:42;;;;;;;6.72;5.45;;;17.10;99.90;;;;;;6278726;28;20040;-82
2021/06/06 09:47:48;;;;;;;6.13;5.40;;;17.10;99.90;;;;;;6245147;28;20110;-83
2021/06/06 09:50:50;;;;;;;6.25;5.65;;;17.10;99.90;;;;;;6263184;28;20056;-82
2021/06/06 09:53:55;;;;;;;6.15;5.55;;;16.90;99.90;;;;;;6278703;28;20090;-78
2021/06/06 09:56:58;;;;;;;8.77;5.25;;;17.10;99.90;;;;;;6263515;28;20032;-80
2021/06/06 10:00:12;;;;;;;11.40;6.20;;;17.20;99.90;;;;;;6261835;28;20390;-77
2021/06/06 10:03:32;;;;;;;7.40;5.50;;;17.10;99.90;;;;;;6296397;28;20048;-79
2021/06/06 10:06:38;;;;;;;6.25;5.05;;;17.10;99.90;;;;;;6278643;28;20021;-82
2021/06/06 10:09:40;;;;;;;5.95;5.32;;;17.10;99.90;;;;;;6278129;28;20024;-84
2021/06/06 10:12:43;;;;;;;7.78;5.90;;;17.00;99.90;;;;;;6261889;28;20024;-81
2021/06/06 10:16:10;;;;;;;6.90;6.20;;;17.10;99.90;;;;;;6261211;28;20089;-80
2021/06/06 10:19:13;;;;;;;7.63;6.35;;;16.90;99.90;;;;;;6290585;28;20117;-78
2021/06/06 10:22:41;;;;;;;6.97;6.32;;;16.50;99.90;;;;;;6278025;28;20033;-81
2021/06/06 10:25:54;;;;;;;7.35;6.35;;;16.80;99.90;;;;;;6287965;28;20037;-79
2021/06/06 10:28:55;;;;;;;6.80;6.18;;;16.70;99.90;;;;;;6275871;28;20024;-83
2021/06/06 10:32:26;;;;;;;6.97;6.00;;;16.70;99.90;;;;;;6261366;28;20032;-82
2021/06/06 10:35:30;;;;;;;7.63;5.60;;;16.90;99.90;;;;;;6285178;28;20470;-83
2021/06/06 10:38:37;;;;;;;6.40;5.70;;;16.90;99.90;;;;;;6261074;28;20052;-81
2021/06/06 10:41:47;;;;;;;6.57;5.22;;;16.60;99.90;;;;;;6244244;28;20032;-85
2021/06/06 10:45:09;;;;;;;5.95;4.60;;;16.70;99.90;;;;;;6245753;28;20056;-83
2021/06/06 10:48:13;;;;;;;5.95;4.57;;;16.70;99.90;;;;;;6277155;28;20160;-81
2021/06/06 10:51:38;;;;;;;5.72;4.60;;;16.70;99.90;;;;;;6295320;28;20057;-82
2021/06/06 10:54:50;;;;;;;4.93;4.43;;;16.80;99.90;;;;;;6295469;28;20027;-81
2021/06/06 10:57:50;;;;;;;5.40;4.90;;;16.90;99.90;;;;;;6261067;28;20025;-81
2021/06/06 11:01:00;;;;;;;5.53;4.93;;;17.10;99.90;;;;;;6259176;28;20064;-80
2021/06/06 11:04:34;;;;;;;4.85;4.45;;;17.20;99.90;;;;;;6260816;28;20023;-81
2021/06/06 11:07:41;;;;;;;4.18;3.78;;;17.30;99.90;;;;;;6260979;28;20432;-80
2021/06/06 11:10:41;;;;;;;4.38;3.97;;;17.30;99.90;;;;;;6259773;28;20029;-80
2021/06/06 11:13:47;;;;;;;4.20;3.80;;;17.20;99.90;;;;;;6259697;28;20052;-81
2021/06/06 11:16:52;;;;;;;4.30;3.90;;;17.30;99.90;;;;;;6260066;28;20021;-80
2021/06/06 11:19:53;;;;;;;5.20;4.15;;;17.60;99.90;;;;;;6244235;28;20049;-81
2021/06/06 11:22:54;;;;;;;4.28;3.88;;;;;;;;;;6260426;28;20442;-81
2021/06/06 11:25:55;;;;;;;5.25;3.90;;;;;;;;;;6243424;28;20106;-81
2021/06/06 11:29:16;;;;;;;3.67;3.20;;;17.10;99.90;;;;;;6260072;28;20105;-81
2021/06/06 11:32:21;;;;;;;3.50;3.20;;;17.10;99.90;;;;;;6261105;28;20054;-81
2021/06/06 11:35:35;;;;;;;4.18;3.58;;;17.10;99.90;;;;;;6243353;28;20094;-80
2021/06/06 11:38:42;;;;;;;4.10;3.70;;;17.30;99.90;;;;;;6276952;28;20091;-80
2021/06/06 11:41:44;;;;;;;4.78;3.58;;;17.10;99.90;;;;;;6259789;28;20032;-80
2021/06/06 11:44:49;;;;;;;3.45;3.15;;;17.20;99.90;;;;;;6243009;28;20119;-79
2021/06/06 11:47:52;;;;;;;3.88;3.17;;;17.20;99.90;;;;;;6260058;28;20493;-80
2021/06/06 11:50:56;;;;;;;3.58;3.00;;;17.10;99.90;;;;;;6242837;28;20028;-80
2021/06/06 11:54:01;;;;;;;3.30;3.00;;;17.10;99.90;;;;;;6243509;28;20478;-80
2021/06/06 11:57:22;;;;;;;3.55;2.92;;;17.00;99.90;;;;;;6259480;28;20021;-81
2021/06/06 12:00:30;;;;;;;3.92;3.53;;;16.80;99.90;;;;;;6245211;28;20143;-83
2021/06/06 12:03:38;;;;;;;4.10;3.50;;;17.30;99.90;;;;;;6242446;28;20099;-84
2021/06/06 12:06:41;;;;;;;6.20;3.50;;;16.90;99.90;;;;;;6259508;28;20042;-85
2021/06/06 12:09:43;;;;;;;3.60;3.30;;;16.90;99.90;;;;;;6243320;28;20086;-84
2021/06/06 12:12:47;;;;;;;3.87;3.20;;;17.00;99.90;;;;;;6258802;28;20022;-84
2021/06/06 12:15:47;;;;;;;4.68;4.18;;;17.00;99.90;;;;;;6260825;28;20123;-82
2021/06/06 12:19:09;;;;;;;3.50;3.20;;;17.00;99.90;;;;;;6275615;28;20036;-83
2021/06/06 12:22:14;;;;;;;3.72;3.42;;;17.20;99.90;;;;;;6275149;28;20059;-82
2021/06/06 12:25:14;;;;;;;3.20;2.60;;;17.10;99.90;;;;;;6259551;28;20048;-81
2021/06/06 12:28:19;;;;;;;9.27;3.38;;;17.10;99.90;;;;;;6274646;28;20024;-78
2021/06/06 12:31:31;;;;;;;4.25;3.20;;;17.20;99.90;;;;;;6242731;28;20066;-82
2021/06/06 12:34:32;;;;;;;2.80;2.45;;;17.60;99.90;;;;;;6258838;28;20508;-81
2021/06/06 12:37:33;;;;;;;3.47;2.53;;;17.50;99.90;;;;;;6242145;28;20052;-85
2021/06/06 12:40:35;;;;;;;3.10;2.80;;;17.30;99.90;;;;;;6258485;28;20439;-85
2021/06/06 12:43:43;;;;;;;3.10;2.80;;;17.40;99.90;;;;;;6258959;28;20063;-82
2021/06/06 12:46:55;;;;;;;3.33;2.85;;;17.20;99.90;;;;;;6242333;28;20119;-81
2021/06/06 12:49:58;;;;;;;3.20;2.90;;;17.10;99.90;;;;;;6259052;28;20035;-81
2021/06/06 12:52:59;;;;;;;4.47;3.08;;;17.30;99.90;;;;;;6258506;28;20024;-82
2021/06/06 12:56:17;;;;;;;3.63;2.80;;;17.20;99.90;;;;;;6292222;28;20023;-82
2021/06/06 12:59:24;;;;;;;4.47;2.97;;;17.10;99.90;;;;;;6275111;28;20131;-81
2021/06/06 13:02:38;;;;;;;3.03;2.72;;;17.10;99.90;;;;;;6274898;28;20029;-79
2021/06/06 13:05:41;;;;;;;3.05;2.67;;;17.20;99.90;;;;;;6259906;28;20470;-79
2021/06/06 13:08:42;;;;;;;3.58;2.95;;;17.30;99.90;;;;;;6258482;28;20027;-79
2021/06/06 13:11:43;;;;;;;3.28;2.60;;;17.50;99.90;;;;;;6273109;28;20351;-81
2021/06/06 13:14:54;;;;;;;2.70;2.50;;;17.50;99.90;;;;;;6240746;28;20028;-81
2021/06/06 13:17:55;;;;;;;5.60;3.20;;;17.50;99.90;;;;;;6277320;28;20102;-80
2021/06/06 13:20:57;;;;;;;6.00;3.35;;;17.60;99.90;;;;;;6296030;28;20028;-79
2021/06/06 13:24:15;;;;;;;3.38;3.08;;;17.50;99.90;;;;;;6262318;28;20393;-82
2021/06/06 13:27:28;;;;;;;4.15;3.42;;;17.50;99.90;;;;;;6263773;28;20047;-81
2021/06/06 13:30:30;;;;;;;;;;;17.50;99.90;;;;;;6279385;28;20033;-80
2021/06/06 13:33:30;;;;;;;4.60;4.20;;;17.40;99.90;;;;;;6261639;28;19954;-85
2021/06/06 13:36:31;;;;;;;5.60;4.20;;;17.50;99.90;;;;;;6261506;28;20045;-84
2021/06/06 13:39:33;;;;;;;5.07;4.57;;;17.40;99.90;;;;;;6245866;28;20040;-84
2021/06/06 13:42:34;;;;;;;4.50;4.10;;;17.30;99.90;;;;;;6245891;28;20040;-86
2021/06/06 13:45:34;;;;;;;5.18;4.45;;;17.30;99.90;;;;;;6261995;28;20056;-85
2021/06/06 13:48:35;;;;;;;4.53;4.10;;;17.20;99.90;;;;;;6262305;28;20490;-85
2021/06/06 13:51:36;;;;;;;4.95;4.43;;;17.20;99.90;;;;;;6245278;28;20552;-84
2021/06/06 13:54:36;;;;;;;5.25;4.63;;;18.20;99.90;;;;;;6245731;28;20335;-86
2021/06/06 13:57:37;;;;;;;6.07;4.85;;;17.10;99.90;;;;;;6262073;28;20040;-88
2021/06/06 14:00:39;;;;;;;5.90;5.30;;;17.20;99.90;;;;;;6245807;28;20021;-84
2021/06/06 14:03:41;;;;;;;5.28;4.68;;;17.20;99.90;;;;;;6244899;28;20029;-81
2021/06/06 14:06:42;;;;;;;13.63;4.75;;;17.20;99.90;;;;;;6244653;28;20032;-82
2021/06/06 14:09:42;;;;;;;4.82;4.43;;;17.40;99.90;;;;;;6260623;28;20097;-83
2021/06/06 14:12:43;;;;;;;5.45;4.60;;;17.60;99.90;;;;;;6261309;28;20343;-83
2021/06/06 14:15:47;;;;;;;6.15;5.30;;;17.40;99.90;;;;;;6261482;28;20078;-86
2021/06/06 14:18:48;;;;;;;5.65;5.15;;;17.80;99.90;;;;;;6243644;28;20036;-85
2021/06/06 14:21:49;;;;;;;5.32;4.70;;;17.70;99.90;;;;;;6244600;28;20017;-86
2021/06/06 14:24:49;;;;;;;7.15;5.32;;;17.80;99.90;;;;;;6244249;28;20032;-85
2021/06/06 14:27:51;;;;;;;4.72;4.25;;;17.70;99.90;;;;;;6243880;28;20745;-86
2021/06/06 14:30:52;;;;;;;4.78;4.03;;;17.70;99.90;;;;;;6244395;28;20054;-86
2021/06/06 14:33:54;;;;;;;4.82;4.38;;;17.80;99.90;;;;;;6277676;28;20036;-86
2021/06/06 14:36:54;;;;;;;4.80;4.30;;;17.70;99.90;;;;;;6244137;28;20071;-86
2021/06/06 14:39:57;;;;;;;5.97;5.35;;;;;;;;;;6260626;28;20029;-86
2021/06/06 14:42:58;;;;;;;5.95;5.38;;;17.80;99.90;;;;;;6260612;28;20099;-86
2021/06/06 14:45:59;;;;;;;5.80;5.20;;;;;;;;;;6258692;28;20028;-86
2021/06/06 14:49:03;;;;;;;5.53;4.50;;;;;;;;;;6277619;28;20386;-89
2021/06/06 14:52:04;;;;;;;3.75;3.38;;;17.90;99.90;;;;;;6278121;28;20035;-85
2021/06/06 14:55:05;;;;;;;3.90;3.50;;;17.50;99.90;;;;;;6277771;28;20111;-83
2021/06/06 14:58:06;;;;;;;3.92;3.53;;;;;;;;;;6244067;28;20074;-84
2021/06/06 15:01:10;;;;;;;3.90;3.55;;;17.70;99.90;;;;;;6277469;28;20040;-86
2021/06/06 15:04:11;;;;;;;5.00;4.25;;;17.70;99.90;;;;;;6244288;28;20032;-86
2021/06/06 15:07:13;;;;;;;3.70;3.40;;;17.70;99.90;;;;;;6244159;28;20025;-84
2021/06/06 15:10:13;;;;;;;4.22;3.20;;;17.80;99.90;;;;;;6244319;28;20303;-84
2021/06/06 15:13:16;;;;;;;3.78;3.40;;;17.80;99.90;;;;;;6260774;28;20049;-85
2021/06/06 15:16:18;;;;;;;3.83;3.42;;;17.80;99.90;;;;;;6259669;28;20489;-85
2021/06/06 15:19:18;;;;;;;5.47;4.25;;;17.80;99.90;;;;;;6259484;28;20064;-84
2021/06/06 15:22:20;;;;;;;5.55;4.22;;;18.00;99.90;;;;;;6259466;28;20032;-83
2021/06/06 15:25:20;;;;;;;5.27;4.37;;;17.80;99.90;;;;;;6243183;28;20028;-84
2021/06/06 15:28:21;;;;;;;5.30;4.45;;;17.90;99.90;;;;;;6259543;28;20036;-85
2021/06/06 15:31:22;;;;;;;4.93;4.43;;;17.90;99.90;;;;;;6243497;28;20107;-82
2021/06/06 15:34:23;;;;;;;7.78;6.72;;;17.90;99.90;;;;;;6259608;28;20060;-83
2021/06/06 15:37:24;;;;;;;7.05;5.28;;;18.00;99.90;;;;;;6242876;28;20045;-87
2021/06/06 15:40:26;;;;;;;8.95;6.75;;;;;;;;;;6242833;28;20044;-86
2021/06/06 15:43:28;;;;;;;10.82;6.05;;;18.10;99.90;;;;;;6259566;28;20104;-82
2021/06/06 15:46:31;;;;;;;7.28;5.78;;;17.90;99.90;;;;;;6242892;28;20155;-85
2021/06/06 15:49:31;;;;;;;6.85;5.35;;;17.90;99.90;;;;;;6276479;28;20032;-85
2021/06/06 15:52:32;;;;;;;9.10;6.28;;;17.90;99.90;;;;;;6259577;28;20063;-86
2021/06/06 15:55:33;;;;;;;7.88;6.85;;;17.90;99.90;;;;;;6259396;28;20477;-85
2021/06/06 15:58:34;;;;;;;8.40;6.03;;;17.90;99.90;;;;;;6243107;28;20028;-83
2021/06/06 16:01:35;;;;;;;7.72;6.93;;;18.80;99.90;;;;;;6240491;28;20031;-85
2021/06/06 16:04:36;;;;;;;10.23;7.13;;;17.70;99.90;;;;;;6241282;28;20127;-81
2021/06/06 16:07:36;;;;;;;6.85;6.13;;;17.70;99.90;;;;;;6275740;28;20086;-78